Time;durP1;ratioP1;P1;durP2;ratioP2;P2;SDS_P1;SDS_P2;PMS_P1;PMS_P2;Temp;Humidity;BMP_temperature;BMP_pressure;BME280_temperature;BME280_humidity;BME280_pressure;Samples;Min_cycle;Max_cycle;Signal;HPM_P1;HPM_P2
2022/11/03 00:01:36;;;;;;;5.67;2.23;;;11.70;43.10;;;;;;4999658;28;20553;-76
2022/11/03 00:04:02;;;;;;;3.28;1.50;;;11.70;43.50;;;;;;4987041;28;20212;-76
2022/11/03 00:06:28;;;;;;;3.03;1.40;;;11.70;44.00;;;;;;4990491;28;20223;-76
2022/11/03 00:09:02;;;;;;;3.93;1.67;;;11.80;43.50;;;;;;4994778;28;20528;-76
2022/11/03 00:11:27;;;;;;;2.80;1.10;;;11.60;44.10;;;;;;4994254;28;20163;-86
2022/11/03 00:13:53;;;;;;;3.40;1.80;;;11.60;44.10;;;;;;4991707;28;20552;-84
2022/11/03 00:16:19;;;;;;;2.90;1.20;;;11.80;44.10;;;;;;4978184;28;20213;-84
2022/11/03 00:18:45;;;;;;;2.90;1.20;;;11.50;44.00;;;;;;4977185;28;20788;-84
2022/11/03 00:21:13;;;;;;;2.90;1.10;;;11.20;45.20;;;;;;4993495;28;20189;-84
2022/11/03 00:23:40;;;;;;;3.20;1.60;;;11.20;45.60;;;;;;4973049;28;20180;-77
2022/11/03 00:26:13;;;;;;;2.92;1.17;;;11.30;44.70;;;;;;4991352;28;20198;-76
2022/11/03 00:28:40;;;;;;;2.95;1.20;;;11.20;45.10;;;;;;4994356;28;20181;-76
2022/11/03 00:31:12;;;;;;;2.90;1.10;;;11.40;44.40;;;;;;5002089;28;20184;-76
2022/11/03 00:33:39;;;;;;;4.60;1.92;;;11.40;44.40;;;;;;5007069;28;20189;-76
2022/11/03 00:36:06;;;;;;;3.00;1.10;;;11.50;42.90;;;;;;4990965;28;20232;-77
2022/11/03 00:38:32;;;;;;;2.90;1.10;;;11.40;43.00;;;;;;4994297;28;20683;-77
2022/11/03 00:41:02;;;;;;;3.00;1.20;;;11.40;43.00;;;;;;4994398;28;20258;-76
2022/11/03 00:43:29;;;;;;;3.50;1.30;;;11.40;42.80;;;;;;4994387;28;20418;-76
2022/11/03 00:45:55;;;;;;;3.10;1.52;;;11.40;43.00;;;;;;4993245;28;20220;-76
2022/11/03 00:48:34;;;;;;;3.00;1.20;;;11.40;42.90;;;;;;4992390;28;20196;-76
2022/11/03 00:51:07;;;;;;;3.10;1.20;;;11.20;43.30;;;;;;4993926;28;20425;-76
2022/11/03 00:53:43;;;;;;;3.00;1.20;;;11.20;43.20;;;;;;4994216;28;20181;-76
2022/11/03 00:56:15;;;;;;;3.08;1.25;;;11.10;43.50;;;;;;4993342;28;20649;-76
2022/11/03 00:58:41;;;;;;;3.75;1.70;;;11.00;43.60;;;;;;4992247;28;20268;-76
2022/11/03 01:01:10;;;;;;;3.00;1.20;;;11.00;44.00;;;;;;4994365;28;20230;-76
2022/11/03 01:03:37;;;;;;;3.00;1.20;;;11.00;43.90;;;;;;4995805;28;20187;-76
2022/11/03 01:08:51;;;;;;;4.20;1.98;;;11.00;43.20;;;;;;4990223;28;20567;-77
2022/11/03 01:14:09;;;;;;;4.10;1.33;;;11.10;43.70;;;;;;4989735;28;20701;-77
2022/11/03 01:16:34;;;;;;;2.92;1.10;;;10.90;43.10;;;;;;4993828;28;20905;-77
2022/11/03 01:19:00;;;;;;;4.40;1.73;;;11.00;43.90;;;;;;4991707;28;20253;-76
2022/11/03 01:21:26;;;;;;;3.20;1.30;;;10.90;43.50;;;;;;4978920;28;20187;-77
2022/11/03 01:23:52;;;;;;;5.38;1.90;;;10.90;43.60;;;;;;4982505;28;20407;-76
2022/11/03 01:26:17;;;;;;;3.40;1.50;;;10.90;44.00;;;;;;4982193;28;20203;-76
2022/11/03 01:28:45;;;;;;;3.10;1.17;;;10.90;43.80;;;;;;4985548;28;20190;-76
2022/11/03 01:31:17;;;;;;;3.10;1.52;;;11.10;43.60;;;;;;4985902;28;20442;-76
2022/11/03 01:33:44;;;;;;;7.03;1.50;;;10.90;43.80;;;;;;4983903;28;20262;-76
2022/11/03 01:36:11;;;;;;;6.60;1.85;;;11.40;43.30;;;;;;4993227;28;20194;-76
2022/11/03 01:38:37;;;;;;;4.32;1.65;;;11.10;44.50;;;;;;4991863;28;20187;-77
2022/11/03 01:41:05;;;;;;;3.30;1.37;;;10.70;44.40;;;;;;4990102;28;20179;-77
2022/11/03 01:43:31;;;;;;;3.08;1.20;;;10.70;44.10;;;;;;4992758;28;20615;-77
2022/11/03 01:46:18;;;;;;;3.30;1.33;;;10.70;43.40;;;;;;4992684;28;20210;-77
2022/11/03 01:48:56;;;;;;;3.63;1.80;;;10.70;43.00;;;;;;4992735;28;20409;-77
2022/11/03 01:51:23;;;;;;;3.45;1.33;;;10.80;43.10;;;;;;4990259;28;20229;-77
2022/11/03 01:53:51;;;;;;;4.43;1.77;;;10.90;43.30;;;;;;4987423;28;20210;-77
2022/11/03 01:56:18;;;;;;;3.25;1.20;;;10.70;43.10;;;;;;4999364;28;20622;-77
2022/11/03 01:58:48;;;;;;;3.63;1.52;;;10.80;42.90;;;;;;4990215;28;20198;-77
2022/11/03 02:01:14;;;;;;;7.03;1.85;;;10.80;43.00;;;;;;4990297;28;20191;-77
2022/11/03 02:03:46;;;;;;;3.30;1.27;;;10.70;43.60;;;;;;4992358;28;20177;-77
2022/11/03 02:06:13;;;;;;;3.53;1.45;;;11.10;43.80;;;;;;4992386;28;20294;-77
2022/11/03 02:08:55;;;;;;;3.72;1.50;;;10.80;42.30;;;;;;4992794;28;20172;-77
2022/11/03 02:14:13;;;;;;;3.20;1.20;;;10.60;43.60;;;;;;4997157;28;20635;-76
2022/11/03 02:16:42;;;;;;;3.40;1.30;;;10.70;42.20;;;;;;5007385;28;20194;-76
2022/11/03 02:19:32;;;;;;;3.28;1.20;;;10.70;42.00;;;;;;4995988;28;20852;-76
2022/11/03 02:22:30;;;;;;;3.60;1.60;;;10.60;42.30;;;;;;4998819;28;20209;-76
2022/11/03 02:25:29;;;;;;;3.78;1.63;;;10.50;42.40;;;;;;4986813;28;20272;-76
2022/11/03 02:27:55;;;;;;;3.78;1.42;;;10.40;43.10;;;;;;4993076;28;20197;-76
2022/11/03 02:30:21;;;;;;;3.23;1.20;;;10.50;43.30;;;;;;4993485;28;20346;-76
2022/11/03 02:32:57;;;;;;;3.27;1.30;;;10.40;43.90;;;;;;4992082;28;20177;-76
2022/11/03 02:35:34;;;;;;;4.40;1.50;;;10.40;44.10;;;;;;4991117;28;20843;-78
2022/11/03 02:38:03;;;;;;;3.40;1.38;;;10.40;43.30;;;;;;5003400;28;20173;-77
2022/11/03 02:40:37;;;;;;;4.13;1.77;;;10.50;43.30;;;;;;4974875;28;20172;-76
2022/11/03 02:43:06;;;;;;;3.40;1.30;;;10.40;42.10;;;;;;4991406;28;20190;-77
2022/11/03 02:45:31;;;;;;;3.22;1.13;;;10.30;42.40;;;;;;4998744;28;20205;-77
2022/11/03 02:48:00;;;;;;;3.40;1.20;;;10.40;42.80;;;;;;5000469;28;20205;-76
2022/11/03 02:50:28;;;;;;;4.07;1.98;;;10.50;42.30;;;;;;4994877;28;20205;-77
2022/11/03 02:52:54;;;;;;;3.92;1.45;;;10.40;42.50;;;;;;4990722;28;20233;-77
2022/11/03 02:55:44;;;;;;;3.20;1.10;;;10.20;42.20;;;;;;5003011;28;20697;-77
2022/11/03 02:58:18;;;;;;;3.30;1.15;;;10.20;42.90;;;;;;4991248;28;20661;-77
2022/11/03 03:00:59;;;;;;;3.22;1.10;;;10.10;43.10;;;;;;4992117;28;20266;-76
2022/11/03 03:03:42;;;;;;;3.30;1.20;;;10.00;43.50;;;;;;4992121;28;20265;-76
2022/11/03 03:06:14;;;;;;;6.30;2.50;;;10.20;43.10;;;;;;4972702;28;20296;-77
2022/11/03 03:08:43;;;;;;;7.53;1.40;;;10.20;42.80;;;;;;4987948;28;20174;-76
2022/11/03 03:11:12;;;;;;;3.85;1.55;;;10.30;42.40;;;;;;4989305;28;20193;-76
2022/11/03 03:13:39;;;;;;;3.42;1.33;;;10.30;42.10;;;;;;4991883;28;20174;-77
2022/11/03 03:16:18;;;;;;;3.67;1.30;;;10.20;42.50;;;;;;4990204;28;20268;-76
2022/11/03 03:18:54;;;;;;;4.55;1.73;;;10.10;43.50;;;;;;4988477;28;20737;-76
2022/11/03 03:21:24;;;;;;;4.22;2.05;;;10.00;43.80;;;;;;4991578;28;20178;-76
2022/11/03 03:23:59;;;;;;;3.80;1.50;;;10.10;43.70;;;;;;4991538;28;20170;-76
2022/11/03 03:26:29;;;;;;;3.40;1.10;;;10.10;44.10;;;;;;4989995;28;20197;-76
2022/11/03 03:29:01;;;;;;;5.72;2.30;;;9.90;46.20;;;;;;4983954;28;20189;-76
2022/11/03 03:31:31;;;;;;;3.40;1.17;;;9.30;48.30;;;;;;4999560;28;20584;-76
2022/11/03 03:33:58;;;;;;;6.32;2.50;;;9.40;47.50;;;;;;4991779;28;20574;-76
2022/11/03 03:36:26;;;;;;;3.30;1.10;;;9.50;46.90;;;;;;4973853;28;20689;-76
2022/11/03 03:38:59;;;;;;;3.70;1.45;;;9.50;47.00;;;;;;4988289;28;20617;-76
2022/11/03 03:41:27;;;;;;;3.42;1.23;;;9.60;46.70;;;;;;4990794;28;20206;-76
2022/11/03 03:43:56;;;;;;;3.30;1.20;;;9.70;46.00;;;;;;4991077;28;20277;-76
2022/11/03 03:46:26;;;;;;;3.40;1.20;;;9.80;45.60;;;;;;4991065;28;20205;-76
2022/11/03 03:48:51;;;;;;;3.53;1.30;;;9.80;44.90;;;;;;4993849;28;20249;-76
2022/11/03 03:51:21;;;;;;;4.57;1.83;;;9.30;47.40;;;;;;5003067;28;20178;-76
2022/11/03 03:53:51;;;;;;;3.40;1.10;;;9.50;46.90;;;;;;5001321;28;20185;-76
2022/11/03 03:56:22;;;;;;;4.10;1.60;;;9.50;46.60;;;;;;4989613;28;20724;-76
2022/11/03 03:58:47;;;;;;;4.28;1.88;;;9.60;46.40;;;;;;4993006;28;20243;-76
2022/11/03 04:01:13;;;;;;;3.40;1.20;;;9.70;45.60;;;;;;4994787;28;20578;-76
2022/11/03 04:03:38;;;;;;;5.77;2.20;;;9.80;45.20;;;;;;4999416;28;20177;-76
2022/11/03 04:06:04;;;;;;;3.50;1.37;;;9.80;44.30;;;;;;4995570;28;20271;-76
2022/11/03 04:08:30;;;;;;;4.43;2.07;;;9.80;44.80;;;;;;4997357;28;20185;-76
2022/11/03 04:24:40;;;;;;;7.95;1.58;;;9.60;44.70;;;;;;4990841;28;20196;-77
2022/11/03 04:27:28;;;;;;;3.83;1.57;;;9.60;44.90;;;;;;4990953;28;20296;-77
2022/11/03 04:30:15;;;;;;;3.92;1.55;;;9.70;44.60;;;;;;4997049;28;20454;-77
2022/11/03 04:32:41;;;;;;;3.45;1.20;;;9.70;44.30;;;;;;4987739;28;20182;-77
2022/11/03 04:35:15;;;;;;;3.45;1.30;;;9.70;44.10;;;;;;4970551;28;20216;-77
2022/11/03 04:37:41;;;;;;;3.38;1.20;;;9.70;44.70;;;;;;4981764;28;20280;-77
2022/11/03 04:40:13;;;;;;;6.50;2.13;;;9.60;44.40;;;;;;5011078;28;20684;-77
2022/11/03 04:42:39;;;;;;;3.38;1.15;;;9.70;44.00;;;;;;5005954;28;20174;-77
2022/11/03 04:45:15;;;;;;;5.00;1.50;;;9.50;44.90;;;;;;4994164;28;20660;-77
2022/11/03 04:47:41;;;;;;;3.50;1.20;;;9.40;44.90;;;;;;4994152;28;20443;-77
2022/11/03 04:50:16;;;;;;;3.80;1.67;;;9.50;44.30;;;;;;4993857;28;20721;-77
2022/11/03 04:52:42;;;;;;;3.50;1.30;;;9.50;44.00;;;;;;4993802;28;20217;-77
2022/11/03 04:55:16;;;;;;;3.50;1.20;;;9.70;43.70;;;;;;4993899;28;20287;-77
2022/11/03 04:57:42;;;;;;;5.00;1.92;;;9.60;43.90;;;;;;4993715;28;20432;-77
2022/11/03 05:00:17;;;;;;;3.53;1.30;;;9.60;43.80;;;;;;4993623;28;20221;-77
2022/11/03 05:02:44;;;;;;;5.30;1.85;;;9.50;44.10;;;;;;4991417;28;20708;-78
2022/11/03 05:05:18;;;;;;;3.50;1.30;;;9.70;44.30;;;;;;4993918;28;20190;-77
2022/11/03 05:07:46;;;;;;;3.55;1.20;;;9.40;43.90;;;;;;4993712;28;20210;-77
2022/11/03 05:10:17;;;;;;;3.70;1.40;;;9.30;44.10;;;;;;4974729;28;20245;-77
2022/11/03 05:12:44;;;;;;;3.55;1.38;;;9.30;44.20;;;;;;4985554;28;20224;-76
2022/11/03 05:15:50;;;;;;;3.45;1.23;;;9.30;44.40;;;;;;4990496;28;20673;-77
2022/11/03 05:18:24;;;;;;;3.50;1.30;;;9.30;43.80;;;;;;4991625;28;20200;-77
2022/11/03 05:21:01;;;;;;;3.95;1.85;;;9.40;43.30;;;;;;4992090;28;20260;-77
2022/11/03 05:23:30;;;;;;;3.50;1.20;;;9.00;44.70;;;;;;4991380;28;20174;-77
2022/11/03 05:25:57;;;;;;;3.70;1.20;;;9.00;45.00;;;;;;4971573;28;20215;-77
2022/11/03 05:28:44;;;;;;;3.72;1.20;;;9.00;45.00;;;;;;4984560;28;20658;-77
2022/11/03 05:31:25;;;;;;;3.65;1.10;;;8.80;46.50;;;;;;5004639;28;20182;-77
2022/11/03 05:33:54;;;;;;;3.80;1.10;;;8.90;46.90;;;;;;5004099;28;20264;-78
2022/11/03 05:36:23;;;;;;;3.80;1.15;;;8.90;46.20;;;;;;4996100;28;20256;-77
2022/11/03 05:38:50;;;;;;;5.88;1.50;;;9.10;44.90;;;;;;4991792;28;20196;-77
2022/11/03 05:41:22;;;;;;;3.80;1.17;;;9.20;44.10;;;;;;4994197;28;20206;-77
2022/11/03 05:44:27;;;;;;;3.90;1.20;;;9.20;44.70;;;;;;4993565;28;20685;-77
2022/11/03 05:46:52;;;;;;;4.03;1.38;;;9.20;44.00;;;;;;4989303;28;20586;-76
2022/11/03 05:49:18;;;;;;;3.90;1.20;;;9.10;44.40;;;;;;4992399;28;20182;-77
2022/11/03 05:51:45;;;;;;;3.90;1.20;;;9.00;44.10;;;;;;5002168;28;20194;-77
2022/11/03 05:54:25;;;;;;;3.90;1.20;;;8.80;45.90;;;;;;4991632;28;20237;-76
2022/11/03 05:56:50;;;;;;;4.00;1.27;;;8.90;45.90;;;;;;4999685;28;20453;-77
2022/11/03 05:59:21;;;;;;;3.90;1.43;;;9.10;46.00;;;;;;5003041;28;20210;-77
2022/11/03 06:01:47;;;;;;;3.85;1.10;;;9.10;44.10;;;;;;5000699;28;20243;-77
2022/11/03 06:04:37;;;;;;;4.30;1.57;;;9.00;44.00;;;;;;4999514;28;20194;-77
2022/11/03 06:07:13;;;;;;;6.32;2.75;;;9.00;44.50;;;;;;4991257;28;20206;-77
2022/11/03 06:09:39;;;;;;;3.90;1.20;;;9.10;43.90;;;;;;4989349;28;20225;-76
2022/11/03 06:12:06;;;;;;;4.00;1.30;;;9.30;44.10;;;;;;4972319;28;20262;-77
2022/11/03 06:14:32;;;;;;;4.10;1.40;;;9.00;44.30;;;;;;4989518;28;20205;-77
2022/11/03 06:17:09;;;;;;;4.10;1.30;;;9.20;44.10;;;;;;4984921;28;20241;-77
2022/11/03 06:19:38;;;;;;;3.90;1.10;;;9.10;43.80;;;;;;4965044;28;20665;-77
2022/11/03 06:22:19;;;;;;;3.90;1.10;;;9.00;44.10;;;;;;4990935;28;20638;-77
2022/11/03 06:24:45;;;;;;;4.78;1.70;;;9.00;44.40;;;;;;4992380;28;20192;-77
2022/11/03 06:27:21;;;;;;;4.10;1.23;;;9.10;44.60;;;;;;4990928;28;20213;-77
2022/11/03 06:30:00;;;;;;;4.55;1.73;;;8.90;45.30;;;;;;4991365;28;20189;-77
2022/11/03 06:32:26;;;;;;;4.03;1.20;;;8.80;45.40;;;;;;4990187;28;20189;-77
2022/11/03 06:34:55;;;;;;;4.40;1.60;;;8.90;45.60;;;;;;4986450;28;20213;-77
2022/11/03 06:37:24;;;;;;;4.20;1.35;;;9.10;44.70;;;;;;4989084;28;20293;-77
2022/11/03 06:39:57;;;;;;;4.85;1.55;;;9.20;44.70;;;;;;4983791;28;20257;-77
2022/11/03 06:42:22;;;;;;;4.10;1.17;;;9.00;45.60;;;;;;4989633;28;20178;-77
2022/11/03 06:44:50;;;;;;;4.07;1.17;;;8.50;47.50;;;;;;4987782;28;20189;-77
2022/11/03 06:47:23;;;;;;;4.10;1.30;;;8.20;50.10;;;;;;4984948;28;20198;-77
2022/11/03 06:49:54;;;;;;;4.30;1.40;;;8.20;49.20;;;;;;4986708;28;20186;-77
2022/11/03 06:52:32;;;;;;;4.50;1.40;;;8.60;48.40;;;;;;4988143;28;20173;-77
2022/11/03 06:55:25;;;;;;;4.10;1.30;;;8.90;47.60;;;;;;4988102;28;20245;-77
2022/11/03 06:57:56;;;;;;;5.57;2.10;;;8.90;46.50;;;;;;4974448;28;20198;-77
2022/11/03 07:00:27;;;;;;;5.00;1.80;;;9.00;46.50;;;;;;4989110;28;20186;-77
2022/11/03 07:02:56;;;;;;;5.10;1.73;;;9.30;46.20;;;;;;4990441;28;20178;-76
2022/11/03 07:05:24;;;;;;;4.20;1.13;;;9.50;45.40;;;;;;4990101;28;20186;-77
2022/11/03 07:07:57;;;;;;;4.20;1.20;;;9.40;45.70;;;;;;4986608;28;20210;-77
2022/11/03 07:10:31;;;;;;;5.07;1.63;;;9.30;45.80;;;;;;4986978;28;20240;-77
2022/11/03 07:13:03;;;;;;;4.20;1.20;;;9.10;46.70;;;;;;4980918;28;20201;-84
2022/11/03 07:15:35;;;;;;;4.30;1.30;;;8.80;48.50;;;;;;5013732;28;20221;-83
2022/11/03 07:18:03;;;;;;;4.10;1.20;;;8.60;48.40;;;;;;5010051;28;20182;-82
2022/11/03 07:20:29;;;;;;;5.85;1.80;;;9.00;48.00;;;;;;5009665;28;20247;-81
2022/11/03 07:22:59;;;;;;;4.10;1.10;;;9.10;47.20;;;;;;4998464;28;20729;-82
2022/11/03 07:25:25;;;;;;;4.30;1.30;;;9.10;47.50;;;;;;5002888;28;20452;-82
2022/11/03 07:27:54;;;;;;;5.87;1.50;;;9.50;47.00;;;;;;5011963;28;20201;-77
2022/11/03 07:30:48;;;;;;;4.53;1.48;;;9.50;46.70;;;;;;5015469;28;20170;-77
2022/11/03 07:33:28;;;;;;;4.00;1.13;;;9.60;47.10;;;;;;4951283;29;20216;-77
2022/11/03 07:35:56;;;;;;;3.97;1.13;;;9.50;47.20;;;;;;4932694;29;20220;-77
2022/11/03 07:38:23;;;;;;;3.95;1.20;;;9.50;48.10;;;;;;4931137;29;20593;-77
2022/11/03 07:40:51;;;;;;;4.47;1.40;;;9.60;47.30;;;;;;4952287;29;20186;-77
2022/11/03 07:43:37;;;;;;;3.80;1.10;;;9.70;48.00;;;;;;4935112;29;20294;-79
2022/11/03 07:46:04;;;;;;;3.80;1.30;;;9.80;47.20;;;;;;4934040;29;20702;-78
2022/11/03 07:48:40;;;;;;;4.35;1.75;;;9.70;47.20;;;;;;4932315;29;20187;-78
2022/11/03 07:51:20;;;;;;;3.80;1.25;;;10.00;46.10;;;;;;4938751;29;20201;-76
2022/11/03 07:53:47;;;;;;;3.83;1.30;;;10.30;45.70;;;;;;4929083;29;20646;-78
2022/11/03 07:56:28;;;;;;;3.60;1.33;;;10.60;44.40;;;;;;4933379;29;20337;-77
2022/11/03 07:58:59;;;;;;;3.90;1.45;;;10.60;44.80;;;;;;4934594;29;20203;-77
2022/11/03 08:01:26;;;;;;;3.58;1.35;;;10.40;45.00;;;;;;4935874;29;20192;-77
2022/11/03 08:03:56;;;;;;;3.30;1.10;;;10.20;46.20;;;;;;4946295;29;20289;-77
2022/11/03 08:06:22;;;;;;;3.60;1.35;;;10.00;48.60;;;;;;4940037;29;20224;-77
2022/11/03 08:08:47;;;;;;;3.40;1.40;;;10.10;48.20;;;;;;4936842;28;20206;-77
2022/11/03 08:11:13;;;;;;;3.10;1.10;;;10.10;47.10;;;;;;5009502;28;20163;-77
2022/11/03 08:13:39;;;;;;;3.10;1.10;;;10.70;46.10;;;;;;5021958;28;20218;-77
2022/11/03 08:16:04;;;;;;;3.00;1.10;;;10.60;45.90;;;;;;5003746;28;20255;-77
2022/11/03 08:18:30;;;;;;;3.10;1.20;;;9.80;49.90;;;;;;5014194;28;20188;-76
2022/11/03 08:20:55;;;;;;;5.40;1.60;;;9.80;50.20;;;;;;5006637;28;20174;-76
2022/11/03 08:23:21;;;;;;;3.20;1.40;;;10.30;49.80;;;;;;5009793;28;20275;-77
2022/11/03 08:25:47;;;;;;;2.90;1.00;;;10.60;47.50;;;;;;5004222;28;20179;-76
2022/11/03 08:28:12;;;;;;;7.13;1.97;;;10.60;46.90;;;;;;4990546;28;20188;-76
2022/11/03 08:30:38;;;;;;;2.80;1.10;;;10.70;47.10;;;;;;4992643;28;20536;-76
2022/11/03 08:33:03;;;;;;;2.90;1.10;;;10.70;47.30;;;;;;4992038;28;20196;-76
2022/11/03 08:35:29;;;;;;;2.80;1.10;;;11.20;46.90;;;;;;4994533;28;20292;-76
2022/11/03 08:37:55;;;;;;;2.80;1.30;;;11.20;45.40;;;;;;4994529;28;20209;-76
2022/11/03 08:40:20;;;;;;;3.80;1.73;;;11.30;44.90;;;;;;4987446;28;20628;-76
2022/11/03 08:42:46;;;;;;;3.20;1.43;;;10.60;48.90;;;;;;4997141;28;20181;-76
2022/11/03 08:45:12;;;;;;;2.70;1.10;;;11.70;46.60;;;;;;4996095;28;20195;-77
2022/11/03 08:47:37;;;;;;;2.87;1.37;;;12.00;43.10;;;;;;4992494;28;20296;-75
2022/11/03 08:50:04;;;;;;;3.50;1.43;;;10.50;48.00;;;;;;4974826;28;20822;-77
2022/11/03 08:52:29;;;;;;;2.65;1.20;;;10.20;51.50;;;;;;4998631;28;20193;-74
2022/11/03 08:54:55;;;;;;;3.43;1.77;;;10.70;50.00;;;;;;4968171;28;20205;-75
2022/11/03 08:57:20;;;;;;;2.70;1.30;;;11.30;49.80;;;;;;4993582;28;20272;-77
2022/11/03 08:59:46;;;;;;;2.70;1.20;;;11.50;47.00;;;;;;4992916;28;20166;-76
2022/11/03 09:02:11;;;;;;;2.53;1.20;;;12.40;45.20;;;;;;4991016;28;20181;-78
2022/11/03 09:04:37;;;;;;;2.53;1.10;;;12.70;44.10;;;;;;4993770;28;20197;-78
2022/11/03 09:07:03;;;;;;;2.70;1.30;;;12.70;42.70;;;;;;4995582;28;20338;-77
2022/11/03 09:09:28;;;;;;;2.57;1.10;;;12.60;44.00;;;;;;5008637;28;20182;-77
2022/11/03 09:11:54;;;;;;;3.43;1.53;;;12.70;43.70;;;;;;5008311;28;20260;-77
2022/11/03 09:14:19;;;;;;;2.73;1.30;;;12.70;43.50;;;;;;4994026;28;20741;-77
2022/11/03 09:16:45;;;;;;;2.83;1.43;;;12.70;43.50;;;;;;4993340;28;20248;-76
2022/11/03 09:19:11;;;;;;;3.80;1.87;;;12.80;44.70;;;;;;5003206;28;20711;-76
2022/11/03 09:21:36;;;;;;;2.60;1.20;;;13.10;42.30;;;;;;4993467;28;20197;-76
2022/11/03 09:24:02;;;;;;;2.60;1.20;;;12.90;43.40;;;;;;4992179;28;20177;-77
2022/11/03 09:26:27;;;;;;;2.50;1.23;;;12.70;44.00;;;;;;4967527;28;20745;-77
2022/11/03 09:28:53;;;;;;;2.53;1.27;;;13.10;43.90;;;;;;4999431;28;20216;-76
2022/11/03 09:31:19;;;;;;;2.70;1.40;;;12.90;44.30;;;;;;4987233;28;20177;-75
2022/11/03 09:33:45;;;;;;;2.63;1.47;;;13.30;44.80;;;;;;4998653;28;20538;-75
2022/11/03 09:36:10;;;;;;;2.93;1.70;;;13.10;44.30;;;;;;4991627;28;20219;-75
2022/11/03 09:38:36;;;;;;;2.60;1.40;;;13.60;43.60;;;;;;4990862;28;20437;-74
2022/11/03 09:41:03;;;;;;;3.03;1.60;;;13.30;43.40;;;;;;4992747;28;20208;-74
2022/11/03 09:43:30;;;;;;;2.87;1.30;;;13.60;42.80;;;;;;4982558;28;20210;-74
2022/11/03 09:45:57;;;;;;;2.67;1.30;;;13.30;43.90;;;;;;4980850;28;20465;-73
2022/11/03 09:48:23;;;;;;;2.23;1.13;;;13.60;43.00;;;;;;4990736;28;20441;-73
2022/11/03 09:50:52;;;;;;;2.60;1.50;;;12.80;44.40;;;;;;4969191;28;20496;-73
2022/11/03 09:53:19;;;;;;;2.63;1.37;;;12.60;45.50;;;;;;4989033;28;20444;-73
2022/11/03 09:55:45;;;;;;;2.20;1.17;;;12.70;45.80;;;;;;4992307;28;20506;-73
2022/11/03 09:58:16;;;;;;;2.80;1.70;;;12.40;46.90;;;;;;4992534;28;20814;-73
2022/11/03 10:00:42;;;;;;;5.90;1.40;;;12.70;47.00;;;;;;4992604;28;20540;-73
2022/11/03 10:03:12;;;;;;;3.07;1.70;;;13.20;43.90;;;;;;4992220;28;20551;-73
2022/11/03 10:05:38;;;;;;;2.93;1.50;;;13.40;42.80;;;;;;4992057;28;20420;-73
2022/11/03 10:08:23;;;;;;;2.20;1.17;;;13.30;44.10;;;;;;4992050;28;20413;-73
2022/11/03 10:10:50;;;;;;;3.07;1.43;;;13.80;42.40;;;;;;4992363;28;20412;-73
2022/11/03 10:13:29;;;;;;;2.60;1.40;;;14.30;41.70;;;;;;4992156;28;20548;-73
2022/11/03 10:15:56;;;;;;;2.20;1.20;;;13.80;41.60;;;;;;4991847;28;20837;-73
2022/11/03 10:18:22;;;;;;;2.80;1.40;;;14.10;42.60;;;;;;4992192;28;20908;-73
2022/11/03 10:20:48;;;;;;;2.10;1.10;;;13.70;43.90;;;;;;4992044;28;20512;-73
2022/11/03 10:23:13;;;;;;;2.30;1.20;;;13.70;43.60;;;;;;4992001;28;20492;-73
2022/11/03 10:25:43;;;;;;;2.10;1.20;;;13.90;43.10;;;;;;4992033;28;20174;-73
2022/11/03 10:28:14;;;;;;;2.37;1.27;;;14.10;42.50;;;;;;4974548;28;20278;-73
2022/11/03 10:30:50;;;;;;;3.23;1.70;;;14.20;41.30;;;;;;4992061;28;20410;-73
2022/11/03 10:33:33;;;;;;;2.40;1.40;;;14.40;41.30;;;;;;4992347;28;20755;-74
2022/11/03 10:36:20;;;;;;;2.83;1.57;;;14.70;40.50;;;;;;4991461;28;20980;-74
2022/11/03 10:38:46;;;;;;;3.20;1.97;;;14.90;39.70;;;;;;4992063;28;20429;-74
2022/11/03 10:41:16;;;;;;;2.80;1.70;;;14.80;39.60;;;;;;4991720;28;20409;-74
2022/11/03 10:43:44;;;;;;;2.20;1.30;;;14.70;40.20;;;;;;4991655;28;20581;-74
2022/11/03 10:46:18;;;;;;;2.83;1.77;;;14.60;40.80;;;;;;4991514;28;20444;-74
2022/11/03 10:48:44;;;;;;;3.27;1.47;;;15.00;40.10;;;;;;4991840;28;20406;-74
2022/11/03 10:51:13;;;;;;;2.13;1.30;;;15.00;40.00;;;;;;4991950;28;20418;-73
2022/11/03 10:53:41;;;;;;;3.50;2.00;;;14.70;40.20;;;;;;4991796;28;21001;-73
2022/11/03 10:56:07;;;;;;;3.23;2.13;;;14.60;40.90;;;;;;4991357;28;20462;-73
2022/11/03 10:58:33;;;;;;;3.43;1.40;;;14.60;41.40;;;;;;4995849;28;20416;-74
2022/11/03 11:00:59;;;;;;;2.40;1.47;;;14.90;39.80;;;;;;4995707;28;20440;-73
2022/11/03 11:03:24;;;;;;;2.10;1.33;;;14.60;41.60;;;;;;4994377;28;20449;-73
2022/11/03 11:05:50;;;;;;;3.50;1.87;;;14.00;42.60;;;;;;4995790;28;20447;-73
2022/11/03 11:08:22;;;;;;;2.97;1.70;;;13.70;44.90;;;;;;4995451;28;20182;-73
2022/11/03 11:10:48;;;;;;;2.40;1.50;;;13.70;44.70;;;;;;4995580;28;20236;-73
2022/11/03 11:13:25;;;;;;;2.20;1.50;;;14.10;44.50;;;;;;4994008;28;20433;-74
2022/11/03 11:15:53;;;;;;;2.67;1.80;;;14.00;44.10;;;;;;4995379;28;20190;-74
2022/11/03 11:18:28;;;;;;;5.93;2.43;;;14.70;43.50;;;;;;4995389;28;20487;-74
2022/11/03 11:21:13;;;;;;;2.77;1.63;;;15.00;40.90;;;;;;4995251;28;20404;-72
2022/11/03 11:23:40;;;;;;;2.10;1.43;;;15.10;40.50;;;;;;4964896;28;20411;-72
2022/11/03 11:26:09;;;;;;;2.27;1.37;;;15.50;39.90;;;;;;4995286;28;20432;-72
2022/11/03 11:29:09;;;;;;;2.47;1.40;;;15.70;39.30;;;;;;4994943;28;20785;-72
2022/11/03 11:31:39;;;;;;;3.70;2.30;;;15.90;38.90;;;;;;4972161;28;20958;-72
2022/11/03 11:34:08;;;;;;;1.90;1.30;;;16.00;39.60;;;;;;4994971;28;20431;-72
2022/11/03 11:36:38;;;;;;;2.77;1.73;;;16.20;38.90;;;;;;4994980;28;20425;-72
2022/11/03 11:39:19;;;;;;;2.50;1.50;;;16.30;39.30;;;;;;4995075;28;20404;-74
2022/11/03 11:42:10;;;;;;;2.20;1.37;;;16.50;39.60;;;;;;4994800;28;20920;-74
2022/11/03 11:44:42;;;;;;;3.30;2.03;;;16.40;38.30;;;;;;4994701;28;20428;-74
2022/11/03 11:47:24;;;;;;;2.53;1.67;;;16.30;38.20;;;;;;4994985;28;21024;-74
2022/11/03 11:50:10;;;;;;;2.50;1.80;;;16.50;38.50;;;;;;4995085;28;20972;-74
2022/11/03 11:52:56;;;;;;;2.20;1.50;;;16.60;38.20;;;;;;4994632;28;20385;-74
2022/11/03 11:55:31;;;;;;;2.20;1.50;;;16.60;38.00;;;;;;4994893;28;20468;-73
2022/11/03 11:57:59;;;;;;;3.03;1.50;;;16.20;38.10;;;;;;4994682;28;20459;-73
2022/11/03 12:00:30;;;;;;;3.00;2.00;;;15.80;39.40;;;;;;4994941;28;20901;-73
2022/11/03 12:02:57;;;;;;;3.33;1.60;;;15.70;39.30;;;;;;4994928;28;20468;-73
2022/11/03 12:05:30;;;;;;;2.73;1.90;;;15.20;40.60;;;;;;4994593;28;20924;-73
2022/11/03 12:07:56;;;;;;;2.40;1.80;;;15.30;40.90;;;;;;4993007;28;20432;-73
2022/11/03 12:10:30;;;;;;;2.43;1.87;;;15.70;40.10;;;;;;4994714;28;20420;-73
2022/11/03 12:12:58;;;;;;;2.03;1.43;;;16.50;39.10;;;;;;4994519;28;20913;-73
2022/11/03 12:15:55;;;;;;;1.90;1.30;;;16.40;38.30;;;;;;4994241;28;20456;-73
2022/11/03 12:18:30;;;;;;;1.90;1.23;;;16.50;38.00;;;;;;4994473;28;20410;-74
2022/11/03 12:20:56;;;;;;;2.50;1.63;;;16.80;38.60;;;;;;4994165;28;20437;-74
2022/11/03 12:23:41;;;;;;;2.53;1.67;;;16.90;38.80;;;;;;4994289;28;20815;-74
2022/11/03 12:26:26;;;;;;;3.60;1.93;;;17.10;38.90;;;;;;4994417;28;20193;-74
2022/11/03 12:28:51;;;;;;;3.60;1.77;;;17.30;36.60;;;;;;4994270;28;21044;-74
2022/11/03 12:31:17;;;;;;;3.00;1.73;;;17.20;36.40;;;;;;4994343;28;20488;-74
2022/11/03 12:33:42;;;;;;;6.40;2.47;;;17.10;36.50;;;;;;4993896;28;20220;-74
2022/11/03 12:36:08;;;;;;;3.73;2.40;;;17.00;38.30;;;;;;4994020;28;20210;-74
2022/11/03 12:38:35;;;;;;;8.63;2.43;;;17.00;37.00;;;;;;4994387;28;20633;-74
2022/11/03 12:41:20;;;;;;;2.93;1.60;;;17.20;36.50;;;;;;4993971;28;20408;-74
2022/11/03 12:43:49;;;;;;;2.70;1.70;;;16.90;36.90;;;;;;4976225;28;20922;-74
2022/11/03 12:46:20;;;;;;;1.97;1.30;;;16.50;38.40;;;;;;4976600;28;20867;-74
2022/11/03 12:48:47;;;;;;;2.53;1.80;;;16.40;38.30;;;;;;4994043;28;20959;-74
2022/11/03 12:51:21;;;;;;;2.17;1.60;;;16.50;38.90;;;;;;4993679;28;20507;-74
2022/11/03 12:53:47;;;;;;;2.70;1.73;;;16.80;37.60;;;;;;4993800;28;20783;-74
2022/11/03 12:56:14;;;;;;;2.37;1.73;;;16.70;37.50;;;;;;4993571;28;20473;-74
2022/11/03 12:58:40;;;;;;;3.00;2.07;;;16.70;37.70;;;;;;4993717;28;20413;-74
2022/11/03 13:01:07;;;;;;;2.60;1.87;;;16.60;38.50;;;;;;4993494;28;20411;-74
2022/11/03 13:03:33;;;;;;;3.37;2.07;;;16.90;38.70;;;;;;4994056;28;20180;-74
2022/11/03 13:06:00;;;;;;;2.83;2.10;;;16.90;38.40;;;;;;4994111;28;20485;-74
2022/11/03 13:08:26;;;;;;;3.50;2.27;;;17.00;37.80;;;;;;4994885;28;20413;-74
2022/11/03 13:10:51;;;;;;;5.77;3.03;;;16.90;37.60;;;;;;4994266;28;20943;-74
2022/11/03 13:13:18;;;;;;;2.93;2.17;;;16.90;37.90;;;;;;4994067;28;20420;-74
2022/11/03 13:15:44;;;;;;;3.57;2.33;;;17.20;37.40;;;;;;4994292;28;20762;-74
2022/11/03 13:18:09;;;;;;;2.93;2.33;;;16.80;37.10;;;;;;4993631;28;20449;-74
2022/11/03 13:20:36;;;;;;;2.93;2.27;;;16.80;37.30;;;;;;4993322;28;20409;-74
2022/11/03 13:23:03;;;;;;;2.50;1.83;;;17.10;38.00;;;;;;4993267;28;20166;-74
2022/11/03 13:25:28;;;;;;;4.60;1.70;;;17.30;37.90;;;;;;4993371;28;20475;-74
2022/11/03 13:27:55;;;;;;;3.60;1.87;;;17.40;37.10;;;;;;4993117;28;20433;-73
2022/11/03 13:30:25;;;;;;;3.73;2.27;;;17.20;36.90;;;;;;4993257;28;20171;-73